European Causeway — C6RG7 — position and weather

sailwx.info

Track history (hours):
 
Tides and Currents Weather Stations Pressure Air Temp Water Temp Dewpoint Dewpoint Depression Visibility Wind Speed Wind Dir Waves Ship Positions

European Causeway

Operator: P & O Irish Sea

Last reported at 2018-Feb-22 10:30 UTC. Time now 2018-Feb-22 10:40 UTC.
Position N 54°58' W 005°01'.

Length 165 m; draft 5.5 m.

Type: Passenger vessel. MMSI: 311027000.

Date/timePositionNaut miles runAvg speedWind from/ knotsBaromVisibWave heightAir tempDewpointWater temp
2018-Feb-22 10:30N 54°58' W 005°01'0 0.0
2018-Feb-22 09:48N 54°58' W 005°01'0 0.1
2018-Feb-22 09:30N 54°58' W 005°01'610.4
2018-Feb-22 08:55N 55°01' W 005°09'818.4
2018-Feb-22 08:30N 54°58' W 005°21'1018.6
2018-Feb-22 07:58N 54°54' W 005°37'714.7
2018-Feb-22 07:29N 54°51' W 005°48'0 0.1
2018-Feb-22 06:59N 54°51' W 005°48'0 0.0
2018-Feb-22 06:29N 54°51' W 005°48'0 0.0
2018-Feb-22 06:00N 54°51' W 005°48'4 8.0
2018-Feb-22 05:30N 54°53' W 005°42'918.6
2018-Feb-22 05:01N 54°57' W 005°28'1018.1
2018-Feb-22 04:27N 55°01' W 005°12'613.8
2018-Feb-22 04:01N 54°59' W 005°02'1 1.9
2018-Feb-22 03:28N 54°58' W 005°01'0 0.0
2018-Feb-22 03:00N 54°58' W 005°01'0 0.0
2018-Feb-22 02:30N 54°58' W 005°01'0 0.0
2018-Feb-22 01:58N 54°58' W 005°01'610.2
2018-Feb-22 01:25N 55°02' W 005°08'717.1
2018-Feb-22 01:00N 54°59' W 005°19'918.1
2018-Feb-22 00:30N 54°55' W 005°33'917.6
2018-Feb-22 00:00N 54°51' W 005°48'0 0.8
2018-Feb-21 23:30N 54°51' W 005°48'0 0.0
2018-Feb-21 23:00N 54°51' W 005°48'0 0.0
2018-Feb-21 22:30N 54°51' W 005°48'0 0.0
2018-Feb-21 22:00N 54°51' W 005°48'4 8.7
2018-Feb-21 21:30N 54°53' W 005°42'918.5
2018-Feb-21 21:00N 54°58' W 005°28'918.8
2018-Feb-21 20:30N 55°01' W 005°12'714.0
2018-Feb-21 20:00N 54°58' W 005°02'0 1.0
2018-Feb-21 19:31N 54°58' W 005°01'0 0.0
2018-Feb-21 18:58N 54°58' W 005°01'0 0.0
2018-Feb-21 18:30N 54°58' W 005°01'6 9.5
2018-Feb-21 17:53N 55°02' W 005°09'718.9
2018-Feb-21 17:31N 54°58' W 005°19'917.9
2018-Feb-21 17:00N 54°55' W 005°34'916.9
2018-Feb-21 16:30N 54°51' W 005°48'1 1.1
2018-Feb-21 16:00N 54°51' W 005°48'0 0.0
2018-Feb-21 15:30N 54°51' W 005°48'3 6.8
2018-Feb-21 15:00N 54°53' W 005°43'918.6
2018-Feb-21 14:30N 54°57' W 005°29'1515.4
2018-Feb-21 13:30N 54°59' W 005°02'1 1.4
2018-Feb-21 12:45N 54°58' W 005°01'0 0.0
2018-Feb-21 12:26N 54°58' W 005°01'611.9
2018-Feb-21 11:56N 55°02' W 005°09'716.4
2018-Feb-21 11:30N 54°58' W 005°20'917.0
2018-Feb-21 11:00N 54°55' W 005°33'917.4
2018-Feb-21 10:29N 54°51' W 005°48'0 0.7
2018-Feb-21 10:00N 54°51' W 005°48'0 0.0
2018-Feb-21 09:30N 54°51' W 005°48'5 8.9
2018-Feb-21 08:59N 54°53' W 005°41'815.1
2018-Feb-21 08:27N 54°57' W 005°29'817.4
2018-Feb-21 08:00N 55°00' W 005°17'814.6
2018-Feb-21 07:27N 54°59' W 005°03'2 2.4
2018-Feb-21 06:44N 54°58' W 005°01'0 0.0
2018-Feb-21 06:26N 54°58' W 005°01'0 0.0
2018-Feb-21 06:00N 54°58' W 005°01'5 9.5
2018-Feb-21 05:26N 55°02' W 005°08'818.6
2018-Feb-21 05:01N 54°59' W 005°21'917.9
2018-Feb-21 04:29N 54°55' W 005°35'816.4
2018-Feb-21 04:00N 54°51' W 005°48'0 0.3
2018-Feb-21 03:29N 54°51' W 005°48'0 0.0
2018-Feb-21 02:59N 54°51' W 005°48'0 0.0
2018-Feb-21 02:29N 54°51' W 005°48'0 0.0
2018-Feb-21 01:59N 54°51' W 005°48'4 9.1
2018-Feb-21 01:30N 54°53' W 005°41'917.8
2018-Feb-21 01:00N 54°57' W 005°27'917.6
2018-Feb-21 00:30N 55°01' W 005°14'714.2
2018-Feb-21 00:00N 54°58' W 005°02'1 1.7
2018-Feb-20 23:25N 54°58' W 005°01'0 0.0
2018-Feb-20 22:55N 54°58' W 005°01'0 0.0
2018-Feb-20 22:19N 54°58' W 005°01'0 0.3
2018-Feb-20 22:00N 54°58' W 005°01'712.4
2018-Feb-20 21:28N 55°01' W 005°11'818.0
2018-Feb-20 21:00N 54°57' W 005°24'919.0
2018-Feb-20 20:31N 54°54' W 005°39'611.3
2018-Feb-20 20:00N 54°51' W 005°48'0 0.0
2018-Feb-20 19:27N 54°51' W 005°48'0 0.0
2018-Feb-20 19:00N 54°51' W 005°48'0 0.0
2018-Feb-20 18:30N 54°51' W 005°48'5 9.5
2018-Feb-20 18:00N 54°53' W 005°41'918.5
2018-Feb-20 17:30N 54°58' W 005°27'917.7
2018-Feb-20 17:00N 55°01' W 005°12'714.5
2018-Feb-20 16:30N 54°58' W 005°01'0 0.1
2018-Feb-20 15:20N 54°58' W 005°01'613.6
2018-Feb-20 14:53N 55°01' W 005°10'818.4
2018-Feb-20 14:27N 54°57' W 005°22'817.7
2018-Feb-20 14:00N 54°55' W 005°35'816.7
2018-Feb-20 13:30N 54°51' W 005°48'0 0.2
2018-Feb-20 12:58N 54°51' W 005°48'0 0.0
2018-Feb-20 12:30N 54°51' W 005°48'510.6
2018-Feb-20 12:00N 54°54' W 005°40'918.1
2018-Feb-20 11:30N 54°57' W 005°26'1018.9
2018-Feb-20 10:58N 55°02' W 005°10'613.1
2018-Feb-20 10:31N 54°58' W 005°01'0 0.5
2018-Feb-20 10:00N 54°58' W 005°01'0 0.0
2018-Feb-20 09:30N 54°58' W 005°01'5 9.3
2018-Feb-20 08:56N 55°02' W 005°07'716.3
2018-Feb-20 08:30N 54°58' W 005°18'918.7
2018-Feb-20 08:00N 54°55' W 005°34'917.6
2018-Feb-20 07:30N 54°51' W 005°48'1 1.2
2018-Feb-20 07:00N 54°51' W 005°48'0 0.0
2018-Feb-20 06:30N 54°51' W 005°48'0 0.0
2018-Feb-20 06:00N 54°51' W 005°48'5 9.8
2018-Feb-20 05:29N 54°54' W 005°41'816.3
2018-Feb-20 05:01N 54°58' W 005°29'815.9
2018-Feb-20 04:30N 55°01' W 005°16'814.6
2018-Feb-20 03:57N 54°59' W 005°03'1 0.7
2018-Feb-20 01:56N 54°58' W 005°01'612.3
2018-Feb-20 01:27N 55°02' W 005°09'716.2
2018-Feb-20 01:00N 54°58' W 005°20'816.4
2018-Feb-20 00:30N 54°55' W 005°33'917.9
2018-Feb-20 00:00N 54°51' W 005°48'1 1.1
2018-Feb-19 23:27N 54°51' W 005°48'0 0.0
2018-Feb-19 23:00N 54°51' W 005°48'0 0.0
2018-Feb-19 22:28N 54°51' W 005°48'0 0.0
2018-Feb-19 21:57N 54°51' W 005°48'4 9.2
2018-Feb-19 21:30N 54°53' W 005°42'917.6
2018-Feb-19 21:00N 54°59' W 005°30'816.3
2018-Feb-19 20:30N 55°01' W 005°17'914.4
2018-Feb-19 19:55N 54°59' W 005°02'1 1.1
2018-Feb-19 18:39N 54°58' W 005°01'0 0.0
2018-Feb-19 18:30N 54°58' W 005°01'610.3
2018-Feb-19 17:55N 55°02' W 005°09'718.5
2018-Feb-19 17:30N 54°59' W 005°21'918.2
2018-Feb-19 17:00N 54°55' W 005°36'815.9
2018-Feb-19 16:31N 54°51' W 005°48'0 0.3
2018-Feb-19 16:00N 54°51' W 005°48'0 0.0
2018-Feb-19 15:29N 54°51' W 005°48'510.8
2018-Feb-19 14:59N 54°54' W 005°40'715.9
2018-Feb-19 14:31N 54°57' W 005°28'1016.5
2018-Feb-19 13:55N 55°02' W 005°13'715.1
2018-Feb-19 13:28N 54°59' W 005°03'1 2.6
2018-Feb-19 12:55N 54°58' W 005°01'0 0.0
2018-Feb-19 12:28N 54°58' W 005°01'5 9.5
2018-Feb-19 11:57N 55°01' W 005°07'715.8
2018-Feb-19 11:31N 54°59' W 005°18'918.1
2018-Feb-19 11:01N 54°55' W 005°32'1017.8
2018-Feb-19 10:27N 54°51' W 005°48'0 0.3
2018-Feb-19 10:00N 54°51' W 005°48'0 0.0
2018-Feb-19 09:30N 54°51' W 005°48'611.5
2018-Feb-19 09:00N 54°54' W 005°39'815.1
2018-Feb-19 08:30N 54°57' W 005°28'715.0
2018-Feb-19 08:00N 55°00' W 005°16'713.5
2018-Feb-19 07:27N 54°59' W 005°03'2 1.1
2018-Feb-19 06:02N 54°58' W 005°01'0 1.0
2018-Feb-19 05:55N 54°58' W 005°01'511.7
2018-Feb-19 05:27N 55°02' W 005°08'818.4
2018-Feb-19 05:00N 54°58' W 005°21'918.3
2018-Feb-19 04:30N 54°54' W 005°36'815.6
2018-Feb-19 04:01N 54°51' W 005°48'0 0.2
2018-Feb-19 03:26N 54°51' W 005°48'0 0.0
2018-Feb-19 02:56N 54°51' W 005°48'0 0.0
2018-Feb-19 02:29N 54°51' W 005°48'0 0.0
2018-Feb-19 01:59N 54°51' W 005°48'3 6.1
2018-Feb-19 01:30N 54°53' W 005°44'916.2
2018-Feb-19 00:58N 54°58' W 005°31'816.2
2018-Feb-19 00:28N 55°00' W 005°18'914.5
2018-Feb-18 23:51N 54°59' W 005°03'1 4.1
2018-Feb-18 23:30N 54°58' W 005°01'0 0.0
2018-Feb-18 22:56N 54°58' W 005°01'0 0.0
2018-Feb-18 22:29N 54°58' W 005°01'0 0.0
2018-Feb-18 21:59N 54°58' W 005°01'6 8.8
2018-Feb-18 21:19N 55°02' W 005°09'517.6
2018-Feb-18 21:01N 54°59' W 005°17'1019.3
2018-Feb-18 20:31N 54°55' W 005°32'919.0
2018-Feb-18 20:01N 54°51' W 005°48'1 1.0
2018-Feb-18 19:27N 54°51' W 005°48'0 0.0
2018-Feb-18 18:51N 54°51' W 005°48'0 0.0
2018-Feb-18 18:29N 54°51' W 005°48'510.3
2018-Feb-18 18:00N 54°54' W 005°41'815.4
2018-Feb-18 17:31N 54°57' W 005°29'916.5
2018-Feb-18 17:00N 55°01' W 005°16'815.1
2018-Feb-18 16:29N 54°59' W 005°03'2 3.1
2018-Feb-18 15:57N 54°58' W 005°01'0 0.0
2018-Feb-18 15:30N 54°58' W 005°01'6 9.2
2018-Feb-18 14:51N 55°01' W 005°09'719.9
2018-Feb-18 14:31N 54°58' W 005°19'918.3
2018-Feb-18 14:00N 54°55' W 005°34'917.0
2018-Feb-18 13:30N 54°51' W 005°48'0 0.6
2018-Feb-18 13:00N 54°51' W 005°48'0 0.0
2018-Feb-18 12:31N 54°51' W 005°48'0 0.0
2018-Feb-18 12:00N 54°51' W 005°48'0 0.0
2018-Feb-18 11:30N 54°51' W 005°48'0 0.0
2018-Feb-18 11:00N 54°51' W 005°48'0 0.0
2018-Feb-18 10:30N 54°51' W 005°48'0 0.0
2018-Feb-18 10:01N 54°51' W 005°48'0 0.0
2018-Feb-18 09:30N 54°51' W 005°48'510.5
2018-Feb-18 09:00N 54°54' W 005°40'917.6
2018-Feb-18 08:30N 54°57' W 005°26'918.6
2018-Feb-18 08:00N 55°01' W 005°12'7 3.5
2018-Feb-18 06:00N 54°58' W 005°01'0 0.0
2018-Feb-18 05:30N 54°58' W 005°01'0 0.0
2018-Feb-18 04:51N 54°58' W 005°01'0 0.0
2018-Feb-18 04:27N 54°58' W 005°01'0 0.0
2018-Feb-18 03:57N 54°58' W 005°01'0 0.0
2018-Feb-18 03:30N 54°58' W 005°01'0 0.0
2018-Feb-18 00:09N 54°58' W 005°01'0 0.0
2018-Feb-17 23:57N 54°58' W 005°01'0 0.0
2018-Feb-17 23:27N 54°58' W 005°01'0 0.0
2018-Feb-17 22:51N 54°58' W 005°01'5 9.0
2018-Feb-17 22:18N 55°02' W 005°07'619.5
2018-Feb-17 22:01N 54°60' W 005°16'1121.5
2018-Feb-17 21:30N 54°55' W 005°32'1018.8
2018-Feb-17 21:00N 54°51' W 005°48'0 0.3
2018-Feb-17 20:29N 54°51' W 005°48'0 0.0
2018-Feb-17 20:00N 54°51' W 005°48'0 0.0
2018-Feb-17 19:31N 54°51' W 005°48'0 0.0
2018-Feb-17 19:00N 54°51' W 005°48'0 0.0
2018-Feb-17 18:30N 54°51' W 005°48'0 0.1
2018-Feb-17 18:00N 54°51' W 005°48'917.7
2018-Feb-17 17:30N 54°55' W 005°34'1020.6
2018-Feb-17 17:00N 54°60' W 005°18'916.5
2018-Feb-17 16:27N 54°59' W 005°02'1 2.0
2018-Feb-17 15:46N 54°58' W 005°01'0 0.0
2018-Feb-17 15:29N 54°58' W 005°01'6 9.3
2018-Feb-17 14:51N 55°02' W 005°09'720.1
2018-Feb-17 14:31N 54°58' W 005°19'1019.1
2018-Feb-17 14:00N 54°55' W 005°34'816.6
2018-Feb-17 13:30N 54°51' W 005°48'0 0.4
2018-Feb-17 13:01N 54°51' W 005°48'0 0.0
2018-Feb-17 12:31N 54°51' W 005°48'4 8.6
2018-Feb-17 12:00N 54°53' W 005°42'918.2
2018-Feb-17 11:30N 54°57' W 005°28'1018.2
2018-Feb-17 10:58N 55°02' W 005°12'713.8
2018-Feb-17 10:30N 54°59' W 005°02'1 1.0
2018-Feb-17 09:30N 54°58' W 005°01'6 9.5
2018-Feb-17 08:51N 55°02' W 005°09'617.3
2018-Feb-17 08:30N 54°58' W 005°18'917.4
2018-Feb-17 08:00N 54°55' W 005°32'1017.9
2018-Feb-17 07:29N 54°52' W 005°47'1 1.7
2018-Feb-17 06:58N 54°51' W 005°48'0 0.0
2018-Feb-17 06:25N 54°51' W 005°48'0 0.0
2018-Feb-17 05:58N 54°51' W 005°48'611.2
2018-Feb-17 05:29N 54°54' W 005°40'817.5
2018-Feb-17 05:00N 54°58' W 005°27'816.9
2018-Feb-17 04:31N 55°01' W 005°13'714.7
2018-Feb-17 04:01N 54°58' W 005°02'1 0.3
2018-Feb-17 01:57N 54°58' W 005°01'6 9.5
2018-Feb-17 01:19N 55°02' W 005°09'617.3
2018-Feb-17 00:59N 54°59' W 005°18'816.2
2018-Feb-17 00:31N 54°56' W 005°30'917.3
2018-Feb-17 00:00N 54°52' W 005°45'2 5.1
2018-Feb-16 23:30N 54°51' W 005°48'0 0.0
2018-Feb-16 23:00N 54°51' W 005°48'0 0.0
2018-Feb-16 22:29N 54°51' W 005°48'0 0.0
2018-Feb-16 22:00N 54°51' W 005°48'510.7
2018-Feb-16 21:30N 54°54' W 005°40'917.3
2018-Feb-16 20:59N 54°58' W 005°26'917.5
2018-Feb-16 20:30N 55°01' W 005°12'612.8
2018-Feb-16 20:01N 54°59' W 005°02'1 0.7
2018-Feb-16 18:24N 54°58' W 005°01'611.0
2018-Feb-16 17:53N 55°02' W 005°09'718.3
2018-Feb-16 17:30N 54°58' W 005°19'1019.1
2018-Feb-16 17:00N 54°55' W 005°34'816.9
2018-Feb-16 16:30N 54°51' W 005°48'0 0.4
2018-Feb-16 16:00N 54°51' W 005°48'0 0.0
2018-Feb-16 15:30N 54°51' W 005°48'611.6
2018-Feb-16 14:58N 54°54' W 005°39'816.8
2018-Feb-16 14:30N 54°58' W 005°27'917.1
2018-Feb-16 14:00N 55°01' W 005°13'713.7
2018-Feb-16 13:30N 54°59' W 005°02'1 1.9
2018-Feb-16 12:58N 54°58' W 005°01'0 0.0
2018-Feb-16 12:26N 54°58' W 005°01'611.0
2018-Feb-16 11:52N 55°01' W 005°10'819.3
2018-Feb-16 11:26N 54°58' W 005°23'818.9
2018-Feb-16 11:00N 54°54' W 005°35'816.0
2018-Feb-16 10:31N 54°51' W 005°48'0 0.2
2018-Feb-16 10:00N 54°51' W 005°48'0 0.0
2018-Feb-16 09:30N 54°51' W 005°48'713.2
2018-Feb-16 09:00N 54°54' W 005°38'917.3
2018-Feb-16 08:30N 54°58' W 005°25'1314.4
2018-Feb-16 07:38N 54°59' W 005°03'1 0.9
2018-Feb-16 06:02N 54°58' W 005°01'0 0.0
2018-Feb-16 05:59N 54°58' W 005°01'610.1
2018-Feb-16 05:25N 55°02' W 005°08'718.1
2018-Feb-16 05:00N 54°58' W 005°20'918.6
2018-Feb-16 04:31N 54°54' W 005°35'816.3
2018-Feb-16 04:00N 54°51' W 005°48'0 0.2
2018-Feb-16 03:27N 54°51' W 005°48'0 0.0
2018-Feb-16 03:00N 54°51' W 005°48'0 0.0
2018-Feb-16 02:30N 54°51' W 005°48'0 0.0
2018-Feb-16 02:00N 54°51' W 005°48'814.4
2018-Feb-16 01:27N 54°55' W 005°36'920.1
2018-Feb-16 01:01N 54°59' W 005°22'1115.8
2018-Feb-16 00:18N 54°59' W 005°03'1 0.7
2018-Feb-15 22:19N 54°58' W 005°01'0 0.1
2018-Feb-15 21:58N 54°58' W 005°01'511.4
2018-Feb-15 21:30N 55°02' W 005°08'715.3
2018-Feb-15 21:00N 54°58' W 005°19'1019.2
2018-Feb-15 20:30N 54°54' W 005°35'816.8
2018-Feb-15 20:01N 54°51' W 005°48'0 0.2
2018-Feb-15 19:30N 54°51' W 005°48'0 0.0
2018-Feb-15 19:00N 54°51' W 005°48'0 0.0
2018-Feb-15 18:30N 54°51' W 005°48'510.3
2018-Feb-15 18:00N 54°53' W 005°40'918.1
2018-Feb-15 17:31N 54°58' W 005°26'1017.6
2018-Feb-15 16:57N 55°02' W 005°11'614.2
2018-Feb-15 16:30N 54°58' W 005°02'0 0.7
2018-Feb-15 16:00N 54°58' W 005°01'0 0.0
2018-Feb-15 15:30N 54°58' W 005°01'7 9.3
2018-Feb-15 14:47N 55°01' W 005°11'619.4
2018-Feb-15 14:28N 54°58' W 005°20'918.8
2018-Feb-15 14:00N 54°54' W 005°34'916.9
2018-Feb-15 13:30N 54°51' W 005°48'0 0.4
2018-Feb-15 13:00N 54°51' W 005°48'0 0.0
2018-Feb-15 12:30N 54°51' W 005°48'611.2
2018-Feb-15 12:00N 54°54' W 005°40'917.6
2018-Feb-15 11:30N 54°58' W 005°26'917.0
2018-Feb-15 10:58N 55°02' W 005°12'613.2
2018-Feb-15 10:30N 54°58' W 005°02'1 1.9
2018-Feb-15 09:58N 54°58' W 005°01'0 0.1
2018-Feb-15 09:22N 54°58' W 005°01'513.1
2018-Feb-15 08:59N 55°02' W 005°07'817.3
2018-Feb-15 08:30N 54°58' W 005°20'918.1
2018-Feb-15 08:00N 54°55' W 005°34'917.1
2018-Feb-15 07:30N 54°51' W 005°48'0 0.3
2018-Feb-15 06:58N 54°51' W 005°48'0 0.0
2018-Feb-15 06:25N 54°51' W 005°48'0 0.1
2018-Feb-15 05:56N 54°51' W 005°48'511.8
2018-Feb-15 05:30N 54°54' W 005°40'816.9
2018-Feb-15 05:00N 54°57' W 005°27'916.5
2018-Feb-15 04:29N 55°01' W 005°14'713.8
2018-Feb-15 04:00N 54°59' W 005°03'2 0.8
2018-Feb-15 01:58N 54°58' W 005°01'6 9.5
2018-Feb-15 01:21N 55°02' W 005°09'719.0
2018-Feb-15 01:00N 54°59' W 005°19'918.3
2018-Feb-15 00:30N 54°55' W 005°33'917.5
2018-Feb-15 00:00N 54°51' W 005°48'1 1.1
2018-Feb-14 23:31N 54°51' W 005°48'0 0.0
2018-Feb-14 23:00N 54°51' W 005°48'0 0.0
2018-Feb-14 22:30N 54°51' W 005°48'0 0.0
2018-Feb-14 22:01N 54°51' W 005°48'5 9.9
2018-Feb-14 21:30N 54°54' W 005°41'917.7
2018-Feb-14 21:00N 54°57' W 005°27'1017.8
2018-Feb-14 20:27N 55°01' W 005°11'614.4
2018-Feb-14 20:00N 54°58' W 005°02'0 0.8
2018-Feb-14 19:30N 54°58' W 005°01'0 0.0
2018-Feb-14 19:00N 54°58' W 005°01'0 0.1
2018-Feb-14 18:24N 54°58' W 005°01'611.5
2018-Feb-14 17:52N 55°02' W 005°09'718.2
2018-Feb-14 17:30N 54°59' W 005°19'1018.8
2018-Feb-14 17:00N 54°55' W 005°35'816.8
2018-Feb-14 16:30N 54°51' W 005°48'0 0.3
2018-Feb-14 16:00N 54°51' W 005°48'0 0.0
2018-Feb-14 15:30N 54°51' W 005°48'611.8
2018-Feb-14 14:58N 54°54' W 005°39'919.6
2018-Feb-14 14:30N 54°60' W 005°26'1018.4
2018-Feb-14 13:58N 55°02' W 005°09'6 4.9
2018-Feb-14 12:39N 54°58' W 005°01'0 0.6
2018-Feb-14 12:30N 54°58' W 005°01'916.0
2018-Feb-14 11:58N 55°05' W 005°10'919.7
2018-Feb-14 11:30N 54°58' W 005°21'1121.4
2018-Feb-14 11:01N 54°54' W 005°38'612.3
2018-Feb-14 10:30N 54°51' W 005°48'0 0.0
2018-Feb-14 09:57N 54°51' W 005°48'0 0.0
2018-Feb-14 09:29N 54°51' W 005°48'4 8.1
2018-Feb-14 09:00N 54°53' W 005°42'918.9
2018-Feb-14 08:30N 54°58' W 005°28'1018.6
2018-Feb-14 07:59N 55°02' W 005°13'816.0
2018-Feb-14 07:31N 54°58' W 005°02'0 0.3
2018-Feb-14 05:54N 54°58' W 005°01'6 8.6
2018-Feb-14 05:15N 55°02' W 005°08'621.4
2018-Feb-14 04:59N 54°60' W 005°17'1122.4
2018-Feb-14 04:30N 54°54' W 005°33'917.2
2018-Feb-14 03:59N 54°51' W 005°48'0 0.1
2018-Feb-14 03:29N 54°51' W 005°48'0 0.0
2018-Feb-14 02:59N 54°51' W 005°48'0 0.0
2018-Feb-14 02:29N 54°51' W 005°48'0 0.0
2018-Feb-14 01:59N 54°51' W 005°48'3 7.2
2018-Feb-14 01:30N 54°53' W 005°43'1020.5
2018-Feb-14 01:01N 54°58' W 005°27'1019.6
2018-Feb-14 00:30N 55°01' W 005°11'713.8
2018-Feb-13 23:59N 54°58' W 005°01'0 0.0
2018-Feb-13 23:22N 54°58' W 005°01'0 0.0
2018-Feb-13 23:00N 54°58' W 005°01'0 0.0
2018-Feb-13 22:30N 54°58' W 005°01'0 0.0
2018-Feb-13 22:00N 54°58' W 005°01'6 9.9
2018-Feb-13 21:27N 55°02' W 005°08'817.6
2018-Feb-13 21:01N 54°58' W 005°20'918.6
2018-Feb-13 20:30N 54°54' W 005°35'816.4
2018-Feb-13 20:01N 54°51' W 005°48'0 0.1
2018-Feb-13 19:13N 54°51' W 005°48'0 0.0
2018-Feb-13 18:55N 54°51' W 005°48'0 0.0
2018-Feb-13 18:30N 54°51' W 005°48'510.3
2018-Feb-13 18:00N 54°54' W 005°41'816.0
2018-Feb-13 17:30N 54°57' W 005°28'917.3
2018-Feb-13 17:00N 55°00' W 005°14'713.0
2018-Feb-13 16:28N 54°59' W 005°02'1 2.3
2018-Feb-13 15:56N 54°58' W 005°01'0 0.0
2018-Feb-13 15:30N 54°58' W 005°01'5 9.4
2018-Feb-13 14:57N 55°02' W 005°07'818.5
2018-Feb-13 14:30N 54°58' W 005°20'918.7
2018-Feb-13 14:00N 54°55' W 005°35'816.3
2018-Feb-13 13:30N 54°51' W 005°48'0 0.2
2018-Feb-13 12:59N 54°51' W 005°48'0 0.0
2018-Feb-13 12:28N 54°51' W 005°48'4 9.7
2018-Feb-13 12:00N 54°53' W 005°42'917.7
2018-Feb-13 11:30N 54°57' W 005°28'817.0
2018-Feb-13 11:00N 55°00' W 005°14'713.3
2018-Feb-13 10:30N 54°59' W 005°03'2 1.8
2018-Feb-13 09:35N 54°58' W 005°01'0 0.7
2018-Feb-13 09:15N 54°58' W 005°01'615.4
2018-Feb-13 08:52N 55°02' W 005°09'617.0
2018-Feb-13 08:30N 54°59' W 005°19'917.3
2018-Feb-13 08:00N 54°55' W 005°32'1017.9
2018-Feb-13 07:28N 54°52' W 005°48'1 1.6
2018-Feb-13 06:55N 54°51' W 005°48'0 0.0
2018-Feb-13 06:28N 54°51' W 005°48'0 0.0
2018-Feb-13 06:00N 54°51' W 005°48'813.0
2018-Feb-13 05:23N 54°55' W 005°36'819.6
2018-Feb-13 05:00N 54°59' W 005°25'1219.2
2018-Feb-13 04:23N 55°03' W 005°05'614.9
2018-Feb-13 03:59N 54°58' W 005°01'0 0.0
2018-Feb-13 03:30N 54°58' W 005°01'0 0.0
2018-Feb-13 03:00N 54°58' W 005°01'0 0.0
2018-Feb-13 02:30N 54°58' W 005°01'0 0.4
2018-Feb-13 01:52N 54°58' W 005°01'512.1
2018-Feb-13 01:25N 55°02' W 005°08'818.1
2018-Feb-13 01:00N 54°59' W 005°20'1121.8
2018-Feb-13 00:30N 54°54' W 005°37'713.6
2018-Feb-12 23:59N 54°51' W 005°48'0 0.0
2018-Feb-12 23:23N 54°51' W 005°48'0 0.0
2018-Feb-12 22:44N 54°51' W 005°48'0 0.0
2018-Feb-12 22:26N 54°51' W 005°48'0 0.0
2018-Feb-12 21:59N 54°51' W 005°48'712.7
2018-Feb-12 21:24N 54°55' W 005°37'717.0
2018-Feb-12 21:00N 54°58' W 005°27'916.6
2018-Feb-12 20:29N 55°01' W 005°13'713.9
2018-Feb-12 20:00N 54°58' W 005°02'1 2.0
2018-Feb-12 19:30N 54°58' W 005°01'0 0.0
2018-Feb-12 18:59N 54°58' W 005°01'0 0.0
2018-Feb-12 18:24N 54°58' W 005°01'611.3
2018-Feb-12 17:51N 55°02' W 005°09'617.7
2018-Feb-12 17:30N 54°59' W 005°19'1018.8
2018-Feb-12 17:00N 54°55' W 005°34'917.1
2018-Feb-12 16:29N 54°51' W 005°48'0 0.4
2018-Feb-12 15:58N 54°51' W 005°48'0 0.0
2018-Feb-12 15:29N 54°51' W 005°48'4 9.4
2018-Feb-12 15:00N 54°53' W 005°41'917.3
2018-Feb-12 14:30N 54°57' W 005°28'916.9
2018-Feb-12 13:59N 55°01' W 005°14'713.8
2018-Feb-12 13:29N 54°59' W 005°02'1 2.6
2018-Feb-12 12:58N 54°58' W 005°01'0 0.0
2018-Feb-12 12:27N 54°58' W 005°01'611.0
2018-Feb-12 11:55N 55°02' W 005°09'818.5
2018-Feb-12 11:30N 54°58' W 005°20'918.3
2018-Feb-12 11:00N 54°55' W 005°35'816.2
2018-Feb-12 10:30N 54°51' W 005°48'  
Track history (hours):
 
Tides and Currents Weather Stations Pressure Air Temp Water Temp Dewpoint Dewpoint Depression Visibility Wind Speed Wind Dir Waves Ship Positions

European Causeway

Operator: P & O Irish Sea

Last reported at 2018-Feb-22 10:30 UTC. Time now 2018-Feb-22 10:40 UTC.
Position N 54°58' W 005°01'.

Length 165 m; draft 5.5 m.

Type: Passenger vessel. MMSI: 311027000.

Date/timePositionNaut miles runAvg speedWind from/ knotsBaromVisibWave heightAir tempDewpointWater temp
2018-Feb-22 10:30N 54°58' W 005°01'0 0.0
2018-Feb-22 09:48N 54°58' W 005°01'0 0.1
2018-Feb-22 09:30N 54°58' W 005°01'610.4
2018-Feb-22 08:55N 55°01' W 005°09'818.4
2018-Feb-22 08:30N 54°58' W 005°21'1018.6
2018-Feb-22 07:58N 54°54' W 005°37'714.7
2018-Feb-22 07:29N 54°51' W 005°48'0 0.1
2018-Feb-22 06:59N 54°51' W 005°48'0 0.0
2018-Feb-22 06:29N 54°51' W 005°48'0 0.0
2018-Feb-22 06:00N 54°51' W 005°48'4 8.0
2018-Feb-22 05:30N 54°53' W 005°42'918.6
2018-Feb-22 05:01N 54°57' W 005°28'1018.1
2018-Feb-22 04:27N 55°01' W 005°12'613.8
2018-Feb-22 04:01N 54°59' W 005°02'1 1.9
2018-Feb-22 03:28N 54°58' W 005°01'0 0.0
2018-Feb-22 03:00N 54°58' W 005°01'0 0.0
2018-Feb-22 02:30N 54°58' W 005°01'0 0.0
2018-Feb-22 01:58N 54°58' W 005°01'610.2
2018-Feb-22 01:25N 55°02' W 005°08'717.1
2018-Feb-22 01:00N 54°59' W 005°19'918.1
2018-Feb-22 00:30N 54°55' W 005°33'917.6
2018-Feb-22 00:00N 54°51' W 005°48'0 0.8
2018-Feb-21 23:30N 54°51' W 005°48'0 0.0
2018-Feb-21 23:00N 54°51' W 005°48'0 0.0
2018-Feb-21 22:30N 54°51' W 005°48'0 0.0
2018-Feb-21 22:00N 54°51' W 005°48'4 8.7
2018-Feb-21 21:30N 54°53' W 005°42'918.5
2018-Feb-21 21:00N 54°58' W 005°28'918.8
2018-Feb-21 20:30N 55°01' W 005°12'714.0
2018-Feb-21 20:00N 54°58' W 005°02'0 1.0
2018-Feb-21 19:31N 54°58' W 005°01'0 0.0
2018-Feb-21 18:58N 54°58' W 005°01'0 0.0
2018-Feb-21 18:30N 54°58' W 005°01'6 9.5
2018-Feb-21 17:53N 55°02' W 005°09'718.9
2018-Feb-21 17:31N 54°58' W 005°19'917.9
2018-Feb-21 17:00N 54°55' W 005°34'916.9
2018-Feb-21 16:30N 54°51' W 005°48'1 1.1
2018-Feb-21 16:00N 54°51' W 005°48'0 0.0
2018-Feb-21 15:30N 54°51' W 005°48'3 6.8
2018-Feb-21 15:00N 54°53' W 005°43'918.6
2018-Feb-21 14:30N 54°57' W 005°29'1515.4
2018-Feb-21 13:30N 54°59' W 005°02'1 1.4
2018-Feb-21 12:45N 54°58' W 005°01'0 0.0
2018-Feb-21 12:26N 54°58' W 005°01'611.9
2018-Feb-21 11:56N 55°02' W 005°09'716.4
2018-Feb-21 11:30N 54°58' W 005°20'917.0
2018-Feb-21 11:00N 54°55' W 005°33'917.4
2018-Feb-21 10:29N 54°51' W 005°48'0 0.7
2018-Feb-21 10:00N 54°51' W 005°48'0 0.0
2018-Feb-21 09:30N 54°51' W 005°48'5 8.9
2018-Feb-21 08:59N 54°53' W 005°41'815.1
2018-Feb-21 08:27N 54°57' W 005°29'817.4
2018-Feb-21 08:00N 55°00' W 005°17'814.6
2018-Feb-21 07:27N 54°59' W 005°03'2 2.4
2018-Feb-21 06:44N 54°58' W 005°01'0 0.0
2018-Feb-21 06:26N 54°58' W 005°01'0 0.0
2018-Feb-21 06:00N 54°58' W 005°01'5 9.5
2018-Feb-21 05:26N 55°02' W 005°08'818.6
2018-Feb-21 05:01N 54°59' W 005°21'917.9
2018-Feb-21 04:29N 54°55' W 005°35'816.4
2018-Feb-21 04:00N 54°51' W 005°48'0 0.3
2018-Feb-21 03:29N 54°51' W 005°48'0 0.0
2018-Feb-21 02:59N 54°51' W 005°48'0 0.0
2018-Feb-21 02:29N 54°51' W 005°48'0 0.0
2018-Feb-21 01:59N 54°51' W 005°48'4 9.1
2018-Feb-21 01:30N 54°53' W 005°41'917.8
2018-Feb-21 01:00N 54°57' W 005°27'917.6
2018-Feb-21 00:30N 55°01' W 005°14'714.2
2018-Feb-21 00:00N 54°58' W 005°02'1 1.7
2018-Feb-20 23:25N 54°58' W 005°01'0 0.0
2018-Feb-20 22:55N 54°58' W 005°01'0 0.0
2018-Feb-20 22:19N 54°58' W 005°01'0 0.3
2018-Feb-20 22:00N 54°58' W 005°01'712.4
2018-Feb-20 21:28N 55°01' W 005°11'818.0
2018-Feb-20 21:00N 54°57' W 005°24'919.0
2018-Feb-20 20:31N 54°54' W 005°39'611.3
2018-Feb-20 20:00N 54°51' W 005°48'0 0.0
2018-Feb-20 19:27N 54°51' W 005°48'0 0.0
2018-Feb-20 19:00N 54°51' W 005°48'0 0.0
2018-Feb-20 18:30N 54°51' W 005°48'5 9.5
2018-Feb-20 18:00N 54°53' W 005°41'918.5
2018-Feb-20 17:30N 54°58' W 005°27'917.7
2018-Feb-20 17:00N 55°01' W 005°12'714.5
2018-Feb-20 16:30N 54°58' W 005°01'0 0.1
2018-Feb-20 15:20N 54°58' W 005°01'613.6
2018-Feb-20 14:53N 55°01' W 005°10'818.4
2018-Feb-20 14:27N 54°57' W 005°22'817.7
2018-Feb-20 14:00N 54°55' W 005°35'816.7
2018-Feb-20 13:30N 54°51' W 005°48'0 0.2
2018-Feb-20 12:58N 54°51' W 005°48'0 0.0
2018-Feb-20 12:30N 54°51' W 005°48'510.6
2018-Feb-20 12:00N 54°54' W 005°40'918.1
2018-Feb-20 11:30N 54°57' W 005°26'1018.9
2018-Feb-20 10:58N 55°02' W 005°10'613.1
2018-Feb-20 10:31N 54°58' W 005°01'0 0.5
2018-Feb-20 10:00N 54°58' W 005°01'0 0.0
2018-Feb-20 09:30N 54°58' W 005°01'5 9.3
2018-Feb-20 08:56N 55°02' W 005°07'716.3
2018-Feb-20 08:30N 54°58' W 005°18'918.7
2018-Feb-20 08:00N 54°55' W 005°34'917.6
2018-Feb-20 07:30N 54°51' W 005°48'1 1.2
2018-Feb-20 07:00N 54°51' W 005°48'0 0.0
2018-Feb-20 06:30N 54°51' W 005°48'0 0.0
2018-Feb-20 06:00N 54°51' W 005°48'5 9.8
2018-Feb-20 05:29N 54°54' W 005°41'816.3
2018-Feb-20 05:01N 54°58' W 005°29'815.9
2018-Feb-20 04:30N 55°01' W 005°16'814.6
2018-Feb-20 03:57N 54°59' W 005°03'1 0.7
2018-Feb-20 01:56N 54°58' W 005°01'612.3
2018-Feb-20 01:27N 55°02' W 005°09'716.2
2018-Feb-20 01:00N 54°58' W 005°20'816.4
2018-Feb-20 00:30N 54°55' W 005°33'917.9
2018-Feb-20 00:00N 54°51' W 005°48'1 1.1
2018-Feb-19 23:27N 54°51' W 005°48'0 0.0
2018-Feb-19 23:00N 54°51' W 005°48'0 0.0
2018-Feb-19 22:28N 54°51' W 005°48'0 0.0
2018-Feb-19 21:57N 54°51' W 005°48'4 9.2
2018-Feb-19 21:30N 54°53' W 005°42'917.6
2018-Feb-19 21:00N 54°59' W 005°30'816.3
2018-Feb-19 20:30N 55°01' W 005°17'914.4
2018-Feb-19 19:55N 54°59' W 005°02'1 1.1
2018-Feb-19 18:39N 54°58' W 005°01'0 0.0
2018-Feb-19 18:30N 54°58' W 005°01'610.3
2018-Feb-19 17:55N 55°02' W 005°09'718.5
2018-Feb-19 17:30N 54°59' W 005°21'918.2
2018-Feb-19 17:00N 54°55' W 005°36'815.9
2018-Feb-19 16:31N 54°51' W 005°48'0 0.3
2018-Feb-19 16:00N 54°51' W 005°48'0 0.0
2018-Feb-19 15:29N 54°51' W 005°48'510.8
2018-Feb-19 14:59N 54°54' W 005°40'715.9
2018-Feb-19 14:31N 54°57' W 005°28'1016.5
2018-Feb-19 13:55N 55°02' W 005°13'715.1
2018-Feb-19 13:28N 54°59' W 005°03'1 2.6
2018-Feb-19 12:55N 54°58' W 005°01'0 0.0
2018-Feb-19 12:28N 54°58' W 005°01'5 9.5
2018-Feb-19 11:57N 55°01' W 005°07'715.8
2018-Feb-19 11:31N 54°59' W 005°18'918.1
2018-Feb-19 11:01N 54°55' W 005°32'1017.8
2018-Feb-19 10:27N 54°51' W 005°48'0 0.3
2018-Feb-19 10:00N 54°51' W 005°48'0 0.0
2018-Feb-19 09:30N 54°51' W 005°48'611.5
2018-Feb-19 09:00N 54°54' W 005°39'815.1
2018-Feb-19 08:30N 54°57' W 005°28'715.0
2018-Feb-19 08:00N 55°00' W 005°16'713.5
2018-Feb-19 07:27N 54°59' W 005°03'2 1.1
2018-Feb-19 06:02N 54°58' W 005°01'0 1.0
2018-Feb-19 05:55N 54°58' W 005°01'511.7
2018-Feb-19 05:27N 55°02' W 005°08'818.4
2018-Feb-19 05:00N 54°58' W 005°21'918.3
2018-Feb-19 04:30N 54°54' W 005°36'815.6
2018-Feb-19 04:01N 54°51' W 005°48'0 0.2
2018-Feb-19 03:26N 54°51' W 005°48'0 0.0
2018-Feb-19 02:56N 54°51' W 005°48'0 0.0
2018-Feb-19 02:29N 54°51' W 005°48'0 0.0
2018-Feb-19 01:59N 54°51' W 005°48'3 6.1
2018-Feb-19 01:30N 54°53' W 005°44'916.2
2018-Feb-19 00:58N 54°58' W 005°31'816.2
2018-Feb-19 00:28N 55°00' W 005°18'914.5
2018-Feb-18 23:51N 54°59' W 005°03'1 4.1
2018-Feb-18 23:30N 54°58' W 005°01'0 0.0
2018-Feb-18 22:56N 54°58' W 005°01'0 0.0
2018-Feb-18 22:29N 54°58' W 005°01'0 0.0
2018-Feb-18 21:59N 54°58' W 005°01'6 8.8
2018-Feb-18 21:19N 55°02' W 005°09'517.6
2018-Feb-18 21:01N 54°59' W 005°17'1019.3
2018-Feb-18 20:31N 54°55' W 005°32'919.0
2018-Feb-18 20:01N 54°51' W 005°48'1 1.0
2018-Feb-18 19:27N 54°51' W 005°48'0 0.0
2018-Feb-18 18:51N 54°51' W 005°48'0 0.0
2018-Feb-18 18:29N 54°51' W 005°48'510.3
2018-Feb-18 18:00N 54°54' W 005°41'815.4
2018-Feb-18 17:31N 54°57' W 005°29'916.5
2018-Feb-18 17:00N 55°01' W 005°16'815.1
2018-Feb-18 16:29N 54°59' W 005°03'2 3.1
2018-Feb-18 15:57N 54°58' W 005°01'0 0.0
2018-Feb-18 15:30N 54°58' W 005°01'6 9.2
2018-Feb-18 14:51N 55°01' W 005°09'719.9
2018-Feb-18 14:31N 54°58' W 005°19'918.3
2018-Feb-18 14:00N 54°55' W 005°34'917.0
2018-Feb-18 13:30N 54°51' W 005°48'0 0.6
2018-Feb-18 13:00N 54°51' W 005°48'0 0.0
2018-Feb-18 12:31N 54°51' W 005°48'0 0.0
2018-Feb-18 12:00N 54°51' W 005°48'0 0.0
2018-Feb-18 11:30N 54°51' W 005°48'0 0.0
2018-Feb-18 11:00N 54°51' W 005°48'0 0.0
2018-Feb-18 10:30N 54°51' W 005°48'0 0.0
2018-Feb-18 10:01N 54°51' W 005°48'0 0.0
2018-Feb-18 09:30N 54°51' W 005°48'510.5
2018-Feb-18 09:00N 54°54' W 005°40'917.6
2018-Feb-18 08:30N 54°57' W 005°26'918.6
2018-Feb-18 08:00N 55°01' W 005°12'7 3.5
2018-Feb-18 06:00N 54°58' W 005°01'0 0.0
2018-Feb-18 05:30N 54°58' W 005°01'0 0.0
2018-Feb-18 04:51N 54°58' W 005°01'0 0.0
2018-Feb-18 04:27N 54°58' W 005°01'0 0.0
2018-Feb-18 03:57N 54°58' W 005°01'0 0.0
2018-Feb-18 03:30N 54°58' W 005°01'0 0.0
2018-Feb-18 00:09N 54°58' W 005°01'0 0.0
2018-Feb-17 23:57N 54°58' W 005°01'0 0.0
2018-Feb-17 23:27N 54°58' W 005°01'0 0.0
2018-Feb-17 22:51N 54°58' W 005°01'5 9.0
2018-Feb-17 22:18N 55°02' W 005°07'619.5
2018-Feb-17 22:01N 54°60' W 005°16'1121.5
2018-Feb-17 21:30N 54°55' W 005°32'1018.8
2018-Feb-17 21:00N 54°51' W 005°48'0 0.3
2018-Feb-17 20:29N 54°51' W 005°48'0 0.0
2018-Feb-17 20:00N 54°51' W 005°48'0 0.0
2018-Feb-17 19:31N 54°51' W 005°48'0 0.0
2018-Feb-17 19:00N 54°51' W 005°48'0 0.0
2018-Feb-17 18:30N 54°51' W 005°48'0 0.1
2018-Feb-17 18:00N 54°51' W 005°48'917.7
2018-Feb-17 17:30N 54°55' W 005°34'1020.6
2018-Feb-17 17:00N 54°60' W 005°18'916.5
2018-Feb-17 16:27N 54°59' W 005°02'1 2.0
2018-Feb-17 15:46N 54°58' W 005°01'0 0.0
2018-Feb-17 15:29N 54°58' W 005°01'6 9.3
2018-Feb-17 14:51N 55°02' W 005°09'720.1
2018-Feb-17 14:31N 54°58' W 005°19'1019.1
2018-Feb-17 14:00N 54°55' W 005°34'816.6
2018-Feb-17 13:30N 54°51' W 005°48'0 0.4
2018-Feb-17 13:01N 54°51' W 005°48'0 0.0
2018-Feb-17 12:31N 54°51' W 005°48'4 8.6
2018-Feb-17 12:00N 54°53' W 005°42'918.2
2018-Feb-17 11:30N 54°57' W 005°28'1018.2
2018-Feb-17 10:58N 55°02' W 005°12'713.8
2018-Feb-17 10:30N 54°59' W 005°02'1 1.0
2018-Feb-17 09:30N 54°58' W 005°01'6 9.5
2018-Feb-17 08:51N 55°02' W 005°09'617.3
2018-Feb-17 08:30N 54°58' W 005°18'917.4
2018-Feb-17 08:00N 54°55' W 005°32'1017.9
2018-Feb-17 07:29N 54°52' W 005°47'1 1.7
2018-Feb-17 06:58N 54°51' W 005°48'0 0.0
2018-Feb-17 06:25N 54°51' W 005°48'0 0.0
2018-Feb-17 05:58N 54°51' W 005°48'611.2
2018-Feb-17 05:29N 54°54' W 005°40'817.5
2018-Feb-17 05:00N 54°58' W 005°27'816.9
2018-Feb-17 04:31N 55°01' W 005°13'714.7
2018-Feb-17 04:01N 54°58' W 005°02'1 0.3
2018-Feb-17 01:57N 54°58' W 005°01'6 9.5
2018-Feb-17 01:19N 55°02' W 005°09'617.3
2018-Feb-17 00:59N 54°59' W 005°18'816.2
2018-Feb-17 00:31N 54°56' W 005°30'917.3
2018-Feb-17 00:00N 54°52' W 005°45'2 5.1
2018-Feb-16 23:30N 54°51' W 005°48'0 0.0
2018-Feb-16 23:00N 54°51' W 005°48'0 0.0
2018-Feb-16 22:29N 54°51' W 005°48'0 0.0
2018-Feb-16 22:00N 54°51' W 005°48'510.7
2018-Feb-16 21:30N 54°54' W 005°40'917.3
2018-Feb-16 20:59N 54°58' W 005°26'917.5
2018-Feb-16 20:30N 55°01' W 005°12'612.8
2018-Feb-16 20:01N 54°59' W 005°02'1 0.7
2018-Feb-16 18:24N 54°58' W 005°01'611.0
2018-Feb-16 17:53N 55°02' W 005°09'718.3
2018-Feb-16 17:30N 54°58' W 005°19'1019.1
2018-Feb-16 17:00N 54°55' W 005°34'816.9
2018-Feb-16 16:30N 54°51' W 005°48'0 0.4
2018-Feb-16 16:00N 54°51' W 005°48'0 0.0
2018-Feb-16 15:30N 54°51' W 005°48'611.6
2018-Feb-16 14:58N 54°54' W 005°39'816.8
2018-Feb-16 14:30N 54°58' W 005°27'917.1
2018-Feb-16 14:00N 55°01' W 005°13'713.7
2018-Feb-16 13:30N 54°59' W 005°02'1 1.9
2018-Feb-16 12:58N 54°58' W 005°01'0 0.0
2018-Feb-16 12:26N 54°58' W 005°01'611.0
2018-Feb-16 11:52N 55°01' W 005°10'819.3
2018-Feb-16 11:26N 54°58' W 005°23'818.9
2018-Feb-16 11:00N 54°54' W 005°35'816.0
2018-Feb-16 10:31N 54°51' W 005°48'0 0.2
2018-Feb-16 10:00N 54°51' W 005°48'0 0.0
2018-Feb-16 09:30N 54°51' W 005°48'713.2
2018-Feb-16 09:00N 54°54' W 005°38'917.3
2018-Feb-16 08:30N 54°58' W 005°25'1314.4
2018-Feb-16 07:38N 54°59' W 005°03'1 0.9
2018-Feb-16 06:02N 54°58' W 005°01'0 0.0
2018-Feb-16 05:59N 54°58' W 005°01'610.1
2018-Feb-16 05:25N 55°02' W 005°08'718.1
2018-Feb-16 05:00N 54°58' W 005°20'918.6
2018-Feb-16 04:31N 54°54' W 005°35'816.3
2018-Feb-16 04:00N 54°51' W 005°48'0 0.2
2018-Feb-16 03:27N 54°51' W 005°48'0 0.0
2018-Feb-16 03:00N 54°51' W 005°48'0 0.0
2018-Feb-16 02:30N 54°51' W 005°48'0 0.0
2018-Feb-16 02:00N 54°51' W 005°48'814.4
2018-Feb-16 01:27N 54°55' W 005°36'920.1
2018-Feb-16 01:01N 54°59' W 005°22'1115.8
2018-Feb-16 00:18N 54°59' W 005°03'1 0.7
2018-Feb-15 22:19N 54°58' W 005°01'0 0.1
2018-Feb-15 21:58N 54°58' W 005°01'511.4
2018-Feb-15 21:30N 55°02' W 005°08'715.3
2018-Feb-15 21:00N 54°58' W 005°19'1019.2
2018-Feb-15 20:30N 54°54' W 005°35'816.8
2018-Feb-15 20:01N 54°51' W 005°48'0 0.2
2018-Feb-15 19:30N 54°51' W 005°48'0 0.0
2018-Feb-15 19:00N 54°51' W 005°48'0 0.0
2018-Feb-15 18:30N 54°51' W 005°48'510.3
2018-Feb-15 18:00N 54°53' W 005°40'918.1
2018-Feb-15 17:31N 54°58' W 005°26'1017.6
2018-Feb-15 16:57N 55°02' W 005°11'614.2
2018-Feb-15 16:30N 54°58' W 005°02'0 0.7
2018-Feb-15 16:00N 54°58' W 005°01'0 0.0
2018-Feb-15 15:30N 54°58' W 005°01'7 9.3
2018-Feb-15 14:47N 55°01' W 005°11'619.4
2018-Feb-15 14:28N 54°58' W 005°20'918.8
2018-Feb-15 14:00N 54°54' W 005°34'916.9
2018-Feb-15 13:30N 54°51' W 005°48'0 0.4
2018-Feb-15 13:00N 54°51' W 005°48'0 0.0
2018-Feb-15 12:30N 54°51' W 005°48'611.2
2018-Feb-15 12:00N 54°54' W 005°40'917.6
2018-Feb-15 11:30N 54°58' W 005°26'917.0
2018-Feb-15 10:58N 55°02' W 005°12'613.2
2018-Feb-15 10:30N 54°58' W 005°02'1 1.9
2018-Feb-15 09:58N 54°58' W 005°01'0 0.1
2018-Feb-15 09:22N 54°58' W 005°01'513.1
2018-Feb-15 08:59N 55°02' W 005°07'817.3
2018-Feb-15 08:30N 54°58' W 005°20'918.1
2018-Feb-15 08:00N 54°55' W 005°34'917.1
2018-Feb-15 07:30N 54°51' W 005°48'0 0.3
2018-Feb-15 06:58N 54°51' W 005°48'0 0.0
2018-Feb-15 06:25N 54°51' W 005°48'0 0.1
2018-Feb-15 05:56N 54°51' W 005°48'511.8
2018-Feb-15 05:30N 54°54' W 005°40'816.9
2018-Feb-15 05:00N 54°57' W 005°27'916.5
2018-Feb-15 04:29N 55°01' W 005°14'713.8
2018-Feb-15 04:00N 54°59' W 005°03'2 0.8
2018-Feb-15 01:58N 54°58' W 005°01'6 9.5
2018-Feb-15 01:21N 55°02' W 005°09'719.0
2018-Feb-15 01:00N 54°59' W 005°19'918.3
2018-Feb-15 00:30N 54°55' W 005°33'917.5
2018-Feb-15 00:00N 54°51' W 005°48'1 1.1
2018-Feb-14 23:31N 54°51' W 005°48'0 0.0
2018-Feb-14 23:00N 54°51' W 005°48'0 0.0
2018-Feb-14 22:30N 54°51' W 005°48'0 0.0
2018-Feb-14 22:01N 54°51' W 005°48'5 9.9
2018-Feb-14 21:30N 54°54' W 005°41'917.7
2018-Feb-14 21:00N 54°57' W 005°27'1017.8
2018-Feb-14 20:27N 55°01' W 005°11'614.4
2018-Feb-14 20:00N 54°58' W 005°02'0 0.8
2018-Feb-14 19:30N 54°58' W 005°01'0 0.0
2018-Feb-14 19:00N 54°58' W 005°01'0 0.1
2018-Feb-14 18:24N 54°58' W 005°01'611.5
2018-Feb-14 17:52N 55°02' W 005°09'718.2
2018-Feb-14 17:30N 54°59' W 005°19'1018.8
2018-Feb-14 17:00N 54°55' W 005°35'816.8
2018-Feb-14 16:30N 54°51' W 005°48'0 0.3
2018-Feb-14 16:00N 54°51' W 005°48'0 0.0
2018-Feb-14 15:30N 54°51' W 005°48'611.8
2018-Feb-14 14:58N 54°54' W 005°39'919.6
2018-Feb-14 14:30N 54°60' W 005°26'1018.4
2018-Feb-14 13:58N 55°02' W 005°09'6 4.9
2018-Feb-14 12:39N 54°58' W 005°01'0 0.6
2018-Feb-14 12:30N 54°58' W 005°01'916.0
2018-Feb-14 11:58N 55°05' W 005°10'919.7
2018-Feb-14 11:30N 54°58' W 005°21'1121.4
2018-Feb-14 11:01N 54°54' W 005°38'612.3
2018-Feb-14 10:30N 54°51' W 005°48'0 0.0
2018-Feb-14 09:57N 54°51' W 005°48'0 0.0
2018-Feb-14 09:29N 54°51' W 005°48'4 8.1
2018-Feb-14 09:00N 54°53' W 005°42'918.9
2018-Feb-14 08:30N 54°58' W 005°28'1018.6
2018-Feb-14 07:59N 55°02' W 005°13'816.0
2018-Feb-14 07:31N 54°58' W 005°02'0 0.3
2018-Feb-14 05:54N 54°58' W 005°01'6 8.6
2018-Feb-14 05:15N 55°02' W 005°08'621.4
2018-Feb-14 04:59N 54°60' W 005°17'1122.4
2018-Feb-14 04:30N 54°54' W 005°33'917.2
2018-Feb-14 03:59N 54°51' W 005°48'0 0.1
2018-Feb-14 03:29N 54°51' W 005°48'0 0.0
2018-Feb-14 02:59N 54°51' W 005°48'0 0.0
2018-Feb-14 02:29N 54°51' W 005°48'0 0.0
2018-Feb-14 01:59N 54°51' W 005°48'3 7.2
2018-Feb-14 01:30N 54°53' W 005°43'1020.5
2018-Feb-14 01:01N 54°58' W 005°27'1019.6
2018-Feb-14 00:30N 55°01' W 005°11'713.8
2018-Feb-13 23:59N 54°58' W 005°01'0 0.0
2018-Feb-13 23:22N 54°58' W 005°01'0 0.0
2018-Feb-13 23:00N 54°58' W 005°01'0 0.0
2018-Feb-13 22:30N 54°58' W 005°01'0 0.0
2018-Feb-13 22:00N 54°58' W 005°01'6 9.9
2018-Feb-13 21:27N 55°02' W 005°08'817.6
2018-Feb-13 21:01N 54°58' W 005°20'918.6
2018-Feb-13 20:30N 54°54' W 005°35'816.4
2018-Feb-13 20:01N 54°51' W 005°48'0 0.1
2018-Feb-13 19:13N 54°51' W 005°48'0 0.0
2018-Feb-13 18:55N 54°51' W 005°48'0 0.0
2018-Feb-13 18:30N 54°51' W 005°48'510.3
2018-Feb-13 18:00N 54°54' W 005°41'816.0
2018-Feb-13 17:30N 54°57' W 005°28'917.3
2018-Feb-13 17:00N 55°00' W 005°14'713.0
2018-Feb-13 16:28N 54°59' W 005°02'1 2.3
2018-Feb-13 15:56N 54°58' W 005°01'0 0.0
2018-Feb-13 15:30N 54°58' W 005°01'5 9.4
2018-Feb-13 14:57N 55°02' W 005°07'818.5
2018-Feb-13 14:30N 54°58' W 005°20'918.7
2018-Feb-13 14:00N 54°55' W 005°35'816.3
2018-Feb-13 13:30N 54°51' W 005°48'0 0.2
2018-Feb-13 12:59N 54°51' W 005°48'0 0.0
2018-Feb-13 12:28N 54°51' W 005°48'4 9.7
2018-Feb-13 12:00N 54°53' W 005°42'917.7
2018-Feb-13 11:30N 54°57' W 005°28'817.0
2018-Feb-13 11:00N 55°00' W 005°14'713.3
2018-Feb-13 10:30N 54°59' W 005°03'2 1.8
2018-Feb-13 09:35N 54°58' W 005°01'0 0.7
2018-Feb-13 09:15N 54°58' W 005°01'615.4
2018-Feb-13 08:52N 55°02' W 005°09'617.0
2018-Feb-13 08:30N 54°59' W 005°19'917.3
2018-Feb-13 08:00N 54°55' W 005°32'1017.9
2018-Feb-13 07:28N 54°52' W 005°48'1 1.6
2018-Feb-13 06:55N 54°51' W 005°48'0 0.0
2018-Feb-13 06:28N 54°51' W 005°48'0 0.0
2018-Feb-13 06:00N 54°51' W 005°48'813.0
2018-Feb-13 05:23N 54°55' W 005°36'819.6
2018-Feb-13 05:00N 54°59' W 005°25'1219.2
2018-Feb-13 04:23N 55°03' W 005°05'614.9
2018-Feb-13 03:59N 54°58' W 005°01'0 0.0
2018-Feb-13 03:30N 54°58' W 005°01'0 0.0
2018-Feb-13 03:00N 54°58' W 005°01'0 0.0
2018-Feb-13 02:30N 54°58' W 005°01'0 0.4
2018-Feb-13 01:52N 54°58' W 005°01'512.1
2018-Feb-13 01:25N 55°02' W 005°08'818.1
2018-Feb-13 01:00N 54°59' W 005°20'1121.8
2018-Feb-13 00:30N 54°54' W 005°37'713.6
2018-Feb-12 23:59N 54°51' W 005°48'0 0.0
2018-Feb-12 23:23N 54°51' W 005°48'0 0.0
2018-Feb-12 22:44N 54°51' W 005°48'0 0.0
2018-Feb-12 22:26N 54°51' W 005°48'0 0.0
2018-Feb-12 21:59N 54°51' W 005°48'712.7
2018-Feb-12 21:24N 54°55' W 005°37'717.0
2018-Feb-12 21:00N 54°58' W 005°27'916.6
2018-Feb-12 20:29N 55°01' W 005°13'713.9
2018-Feb-12 20:00N 54°58' W 005°02'1 2.0
2018-Feb-12 19:30N 54°58' W 005°01'0 0.0
2018-Feb-12 18:59N 54°58' W 005°01'0 0.0
2018-Feb-12 18:24N 54°58' W 005°01'611.3
2018-Feb-12 17:51N 55°02' W 005°09'617.7
2018-Feb-12 17:30N 54°59' W 005°19'1018.8
2018-Feb-12 17:00N 54°55' W 005°34'917.1
2018-Feb-12 16:29N 54°51' W 005°48'0 0.4
2018-Feb-12 15:58N 54°51' W 005°48'0 0.0
2018-Feb-12 15:29N 54°51' W 005°48'4 9.4
2018-Feb-12 15:00N 54°53' W 005°41'917.3
2018-Feb-12 14:30N 54°57' W 005°28'916.9
2018-Feb-12 13:59N 55°01' W 005°14'713.8
2018-Feb-12 13:29N 54°59' W 005°02'1 2.6
2018-Feb-12 12:58N 54°58' W 005°01'0 0.0
2018-Feb-12 12:27N 54°58' W 005°01'611.0
2018-Feb-12 11:55N 55°02' W 005°09'818.5
2018-Feb-12 11:30N 54°58' W 005°20'918.3
2018-Feb-12 11:00N 54°55' W 005°35'816.2
2018-Feb-12 10:30N 54°51' W 005°48'  

Dump ship's entire track history